Time;durP1;ratioP1;P1;durP2;ratioP2;P2;SDS_P1;SDS_P2;PMS_P1;PMS_P2;Temp;Humidity;BMP_temperature;BMP_pressure;BME280_temperature;BME280_humidity;BME280_pressure;Samples;Min_cycle;Max_cycle;Signal;HPM_P1;HPM_P2
2020/12/17 00:01:28;;;;;;;7.75;4.65;;;3.00;87.30;;;;;;5076932;28;20100;-70
2020/12/17 00:03:55;;;;;;;5.50;3.78;;;3.00;88.00;;;;;;5076506;28;20028;-70
2020/12/17 00:06:24;;;;;;;5.90;4.10;;;3.00;88.00;;;;;;5076547;28;20028;-70
2020/12/17 00:08:50;;;;;;;5.72;4.35;;;3.00;87.60;;;;;;5076471;28;20115;-70
2020/12/17 00:11:17;;;;;;;5.78;4.18;;;3.00;87.50;;;;;;5076731;28;20104;-70
2020/12/17 00:13:42;;;;;;;5.25;4.18;;;3.00;87.40;;;;;;5076680;28;20025;-70
2020/12/17 00:16:12;;;;;;;6.82;4.78;;;2.90;87.80;;;;;;5076537;28;20366;-71
2020/12/17 00:18:37;;;;;;;6.00;4.45;;;2.90;88.10;;;;;;5076460;28;20059;-72
2020/12/17 00:21:03;;;;;;;5.82;4.10;;;3.00;87.90;;;;;;5076439;28;20056;-71
2020/12/17 00:23:29;;;;;;;5.72;4.10;;;3.00;87.60;;;;;;5076444;28;20037;-70
2020/12/17 00:25:54;;;;;;;6.43;4.40;;;3.00;87.10;;;;;;5076173;28;20016;-70
2020/12/17 00:28:20;;;;;;;5.00;3.53;;;3.00;87.10;;;;;;5076687;28;20051;-70
2020/12/17 00:30:45;;;;;;;5.97;4.30;;;3.00;87.20;;;;;;5076425;28;20021;-70
2020/12/17 00:33:11;;;;;;;5.95;4.72;;;3.10;86.90;;;;;;5076348;28;20039;-70
2020/12/17 00:35:36;;;;;;;6.13;4.13;;;3.00;86.70;;;;;;5076290;28;20021;-70
2020/12/17 00:38:04;;;;;;;6.63;4.10;;;3.00;86.50;;;;;;5076256;28;20416;-70
2020/12/17 00:40:30;;;;;;;7.82;5.50;;;2.90;86.60;;;;;;5079367;28;20025;-70
2020/12/17 00:42:58;;;;;;;6.95;6.03;;;2.90;86.80;;;;;;5080327;28;20044;-70
2020/12/17 00:45:24;;;;;;;7.80;5.72;;;2.80;87.80;;;;;;5062325;28;20043;-70
2020/12/17 00:47:49;;;;;;;7.93;5.63;;;2.80;88.10;;;;;;5080006;28;20028;-70
2020/12/17 00:50:15;;;;;;;9.65;5.90;;;2.80;87.90;;;;;;5080195;28;20031;-70
2020/12/17 00:52:41;;;;;;;7.18;4.90;;;2.90;87.80;;;;;;5062275;28;20025;-70
2020/12/17 00:55:07;;;;;;;6.15;4.30;;;2.80;88.10;;;;;;5080359;28;20089;-70
2020/12/17 00:57:33;;;;;;;6.47;4.18;;;2.90;87.60;;;;;;5079852;28;20037;-70
2020/12/17 00:59:59;;;;;;;5.38;4.05;;;2.90;87.90;;;;;;5080128;28;20034;-70
2020/12/17 01:02:24;;;;;;;5.93;4.45;;;2.90;88.20;;;;;;5079705;28;20110;-70
2020/12/17 01:04:50;;;;;;;5.82;4.10;;;2.90;88.50;;;;;;5061925;28;20020;-70
2020/12/17 01:07:17;;;;;;;5.70;4.65;;;2.90;88.40;;;;;;5079873;28;20035;-70
2020/12/17 01:09:43;;;;;;;6.78;4.47;;;2.90;88.10;;;;;;5061986;28;20423;-70
2020/12/17 01:12:09;;;;;;;6.78;5.28;;;2.90;87.80;;;;;;5079875;28;20107;-70
2020/12/17 01:14:35;;;;;;;7.30;5.07;;;2.90;87.80;;;;;;5079716;28;20030;-70
2020/12/17 01:17:03;;;;;;;6.97;5.25;;;2.90;87.80;;;;;;5079772;28;20032;-70
2020/12/17 01:19:30;;;;;;;6.93;4.10;;;2.90;88.30;;;;;;5079784;28;20021;-70
2020/12/17 01:21:55;;;;;;;4.63;3.78;;;2.90;88.50;;;;;;5079310;28;20025;-70
2020/12/17 01:24:24;;;;;;;6.05;4.43;;;2.90;88.70;;;;;;5079668;28;20043;-70
2020/12/17 01:26:55;;;;;;;5.57;4.07;;;2.90;88.80;;;;;;5079288;28;20041;-70
2020/12/17 01:29:21;;;;;;;5.38;4.18;;;2.90;88.80;;;;;;5079285;28;20442;-70
2020/12/17 01:31:47;;;;;;;6.40;4.57;;;2.90;88.60;;;;;;5061510;28;20031;-70
2020/12/17 01:34:13;;;;;;;6.90;4.55;;;2.80;88.80;;;;;;5079419;28;20025;-70
2020/12/17 01:36:38;;;;;;;5.40;4.65;;;2.80;88.70;;;;;;5079227;28;20042;-70
2020/12/17 01:39:04;;;;;;;5.80;5.10;;;2.80;89.00;;;;;;5079483;28;20384;-70
2020/12/17 01:41:30;;;;;;;7.15;5.32;;;2.80;89.40;;;;;;5079105;28;20127;-70
2020/12/17 01:44:01;;;;;;;6.70;5.80;;;2.80;88.90;;;;;;5078862;28;20029;-71
2020/12/17 01:46:27;;;;;;;6.72;5.53;;;2.80;88.60;;;;;;5061302;28;20021;-72
2020/12/17 01:48:53;;;;;;;9.13;6.82;;;2.80;88.60;;;;;;5078946;28;20397;-72
2020/12/17 01:51:19;;;;;;;6.63;5.35;;;2.70;88.30;;;;;;5077729;28;20028;-72
2020/12/17 01:53:47;;;;;;;8.88;5.78;;;2.70;88.40;;;;;;5079077;28;20418;-72
2020/12/17 01:56:28;;;;;;;6.88;5.60;;;2.70;88.40;;;;;;5078805;28;20025;-72
2020/12/17 01:59:15;;;;;;;6.75;5.20;;;2.70;88.80;;;;;;5078729;28;20028;-72
2020/12/17 02:01:45;;;;;;;8.35;5.70;;;2.70;88.70;;;;;;5061051;28;20029;-72
2020/12/17 02:04:11;;;;;;;7.47;5.40;;;2.60;89.00;;;;;;5078837;28;20294;-70
2020/12/17 02:06:37;;;;;;;7.70;5.60;;;2.70;88.60;;;;;;5078623;28;20024;-70
2020/12/17 02:09:04;;;;;;;8.55;5.68;;;2.70;88.60;;;;;;5078558;28;20428;-71
2020/12/17 02:11:30;;;;;;;7.22;5.68;;;2.70;88.70;;;;;;5078511;28;20430;-72
2020/12/17 02:13:55;;;;;;;8.30;6.10;;;2.80;88.90;;;;;;5078365;28;20035;-72
2020/12/17 02:16:21;;;;;;;9.35;6.25;;;2.80;88.90;;;;;;5078423;28;20329;-72
2020/12/17 02:18:52;;;;;;;7.97;6.20;;;2.80;89.20;;;;;;5078406;28;20035;-72
2020/12/17 02:21:18;;;;;;;8.85;6.18;;;2.80;89.20;;;;;;5078377;28;20017;-71
2020/12/17 02:23:44;;;;;;;8.13;6.70;;;2.90;88.50;;;;;;5078078;28;20076;-72
2020/12/17 02:26:12;;;;;;;9.35;7.32;;;2.90;88.50;;;;;;5060337;28;20071;-72
2020/12/17 02:28:39;;;;;;;8.40;6.47;;;2.90;88.60;;;;;;5060618;28;20537;-72
2020/12/17 02:31:04;;;;;;;7.60;6.35;;;2.90;88.90;;;;;;5078154;28;20363;-72
2020/12/17 02:33:30;;;;;;;8.23;6.25;;;2.90;88.90;;;;;;5078102;28;20056;-72
2020/12/17 02:35:56;;;;;;;8.45;6.97;;;2.90;89.10;;;;;;5077877;28;20024;-72
2020/12/17 02:38:23;;;;;;;10.18;6.35;;;2.80;89.50;;;;;;5077952;28;20079;-72
2020/12/17 02:40:52;;;;;;;8.82;6.95;;;2.80;89.70;;;;;;5078270;28;20020;-72
2020/12/17 02:43:18;;;;;;;10.00;7.47;;;2.80;90.00;;;;;;5077704;28;20112;-72
2020/12/17 02:45:49;;;;;;;8.82;6.80;;;2.70;90.40;;;;;;5060062;28;20119;-72
2020/12/17 02:48:15;;;;;;;9.00;5.70;;;2.80;90.60;;;;;;5077708;28;20028;-72
2020/12/17 02:50:42;;;;;;;7.18;5.38;;;2.80;90.60;;;;;;5077858;28;20059;-72
2020/12/17 02:53:08;;;;;;;6.93;5.22;;;2.90;90.40;;;;;;5077603;28;20439;-72
2020/12/17 02:55:37;;;;;;;5.50;4.80;;;2.90;90.20;;;;;;5077518;28;20142;-71
2020/12/17 02:58:06;;;;;;;6.40;5.60;;;2.90;90.00;;;;;;5077830;28;20048;-72
2020/12/17 03:00:31;;;;;;;6.72;5.13;;;2.90;90.40;;;;;;5077862;28;20024;-70
2020/12/17 03:02:57;;;;;;;6.45;4.10;;;3.00;91.50;;;;;;5076962;28;20305;-70
2020/12/17 03:05:23;;;;;;;5.57;4.40;;;3.00;91.00;;;;;;5077415;28;20024;-70
2020/12/17 03:07:48;;;;;;;4.93;3.80;;;3.00;90.50;;;;;;5077602;28;20078;-70
2020/12/17 03:10:14;;;;;;;6.07;5.13;;;3.00;90.40;;;;;;5077615;28;20448;-70
2020/12/17 03:12:44;;;;;;;8.48;5.60;;;3.00;90.50;;;;;;5077504;28;20024;-70
2020/12/17 03:15:13;;;;;;;6.30;4.30;;;3.10;89.80;;;;;;5077270;28;20032;-70
2020/12/17 03:17:39;;;;;;;5.00;3.08;;;3.10;89.80;;;;;;5077480;28;20029;-70
2020/12/17 03:20:07;;;;;;;7.63;5.50;;;3.20;89.60;;;;;;5077436;28;20370;-70
2020/12/17 03:22:33;;;;;;;10.85;5.47;;;3.10;89.60;;;;;;5077036;28;20039;-70
2020/12/17 03:25:00;;;;;;;5.53;4.47;;;3.10;89.80;;;;;;5077512;28;20353;-70
2020/12/17 03:27:26;;;;;;;4.28;3.28;;;3.10;90.40;;;;;;5076817;28;20446;-70
2020/12/17 03:29:51;;;;;;;5.20;4.07;;;3.10;90.00;;;;;;5077123;28;20024;-70
2020/12/17 03:32:17;;;;;;;6.40;4.63;;;3.10;89.60;;;;;;5059313;28;20032;-70
2020/12/17 03:34:43;;;;;;;5.97;4.82;;;3.10;89.40;;;;;;5076936;28;20025;-70
2020/12/17 03:37:09;;;;;;;9.30;5.05;;;3.00;89.10;;;;;;5077219;28;20408;-70
2020/12/17 03:39:37;;;;;;;9.13;4.95;;;2.90;89.00;;;;;;5077000;28;20024;-70
2020/12/17 03:42:04;;;;;;;5.68;4.32;;;2.90;89.50;;;;;;5076813;28;20316;-70
2020/12/17 03:44:30;;;;;;;6.45;5.00;;;2.90;89.90;;;;;;5076800;28;20021;-70
2020/12/17 03:46:55;;;;;;;8.15;5.15;;;2.80;90.70;;;;;;5077019;28;20024;-70
2020/12/17 03:49:21;;;;;;;7.88;5.35;;;2.90;90.50;;;;;;5076686;28;20408;-70
2020/12/17 03:51:47;;;;;;;5.90;4.60;;;2.90;90.10;;;;;;5076803;28;20078;-70
2020/12/17 03:54:12;;;;;;;5.50;4.38;;;2.90;89.70;;;;;;5077002;28;20037;-70
2020/12/17 03:56:38;;;;;;;5.80;4.85;;;2.90;89.60;;;;;;5076856;28;20333;-70
2020/12/17 03:59:07;;;;;;;5.30;4.30;;;2.80;90.10;;;;;;5076670;28;20066;-70
2020/12/17 04:01:33;;;;;;;7.68;4.47;;;2.80;90.60;;;;;;5076954;28;20029;-70
2020/12/17 04:03:58;;;;;;;5.43;4.18;;;2.80;90.20;;;;;;5076435;28;20075;-70
2020/12/17 04:06:24;;;;;;;5.53;4.30;;;2.80;90.20;;;;;;5076620;28;20016;-70
2020/12/17 04:08:50;;;;;;;6.47;5.18;;;2.90;90.20;;;;;;5058790;28;20152;-70
2020/12/17 04:11:18;;;;;;;7.60;4.97;;;2.90;90.40;;;;;;5076754;28;20025;-70
2020/12/17 04:13:44;;;;;;;7.75;5.40;;;2.90;89.90;;;;;;5076424;28;20052;-70
2020/12/17 04:16:09;;;;;;;5.97;4.32;;;2.80;90.30;;;;;;5080709;28;20027;-70
2020/12/17 04:18:35;;;;;;;7.88;4.60;;;2.80;90.10;;;;;;5080684;28;20028;-70
2020/12/17 04:21:01;;;;;;;5.05;4.55;;;2.80;90.10;;;;;;5080616;28;20033;-70
2020/12/17 04:23:27;;;;;;;4.47;3.83;;;2.70;90.20;;;;;;5080811;28;20032;-70
2020/12/17 04:25:53;;;;;;;5.85;4.07;;;2.70;91.20;;;;;;5080572;28;20052;-70
2020/12/17 04:28:18;;;;;;;4.38;3.33;;;2.70;91.40;;;;;;5080787;28;20435;-70
2020/12/17 04:30:44;;;;;;;3.65;2.83;;;2.80;92.40;;;;;;5080755;28;20027;-70
2020/12/17 04:33:10;;;;;;;4.88;3.67;;;2.90;92.60;;;;;;5062621;28;20083;-70
2020/12/17 04:35:36;;;;;;;3.42;2.90;;;3.00;92.40;;;;;;5080328;28;20057;-70
2020/12/17 04:38:01;;;;;;;6.53;3.35;;;3.20;91.80;;;;;;5080437;28;20082;-70
2020/12/17 04:40:27;;;;;;;5.47;3.80;;;3.20;91.00;;;;;;5080295;28;20032;-70
2020/12/17 04:42:53;;;;;;;3.28;2.72;;;3.30;90.60;;;;;;5080137;28;20351;-70
2020/12/17 04:45:23;;;;;;;3.63;2.72;;;3.30;90.60;;;;;;5062375;28;20083;-70
2020/12/17 04:47:52;;;;;;;4.47;3.05;;;3.40;90.60;;;;;;5062431;28;20024;-70
2020/12/17 04:50:21;;;;;;;2.97;2.55;;;3.40;90.60;;;;;;5080049;28;20035;-70
2020/12/17 04:52:51;;;;;;;7.03;6.00;;;3.50;90.80;;;;;;5079897;28;20021;-70
2020/12/17 04:55:27;;;;;;;11.95;9.07;;;3.70;89.70;;;;;;5079897;28;20036;-70
2020/12/17 04:57:56;;;;;;;;;;;4.00;87.70;;;;;;5080329;28;20025;-70
2020/12/17 05:00:24;;;;;;;10.13;7.40;;;4.00;87.10;;;;;;5079917;28;19908;-70
2020/12/17 05:02:55;;;;;;;11.00;7.20;;;4.00;86.90;;;;;;5079640;28;20036;-70
2020/12/17 05:05:22;;;;;;;6.00;5.30;;;3.90;87.10;;;;;;5079910;28;20016;-70
2020/12/17 05:07:48;;;;;;;5.18;4.20;;;3.90;87.30;;;;;;5079966;28;20036;-70
2020/12/17 05:10:14;;;;;;;6.03;5.05;;;3.70;87.70;;;;;;5079993;28;20020;-71
2020/12/17 05:12:39;;;;;;;8.23;5.93;;;3.60;87.70;;;;;;5079869;28;20447;-72
2020/12/17 05:15:05;;;;;;;5.53;4.07;;;3.40;87.90;;;;;;5079652;28;20149;-70
2020/12/17 05:17:31;;;;;;;4.85;4.18;;;3.30;88.30;;;;;;5079545;28;20086;-70
2020/12/17 05:19:57;;;;;;;8.30;5.47;;;3.30;88.70;;;;;;5079825;28;20035;-70
2020/12/17 05:22:24;;;;;;;8.20;5.97;;;3.10;88.80;;;;;;5079604;28;20028;-71
2020/12/17 05:24:50;;;;;;;8.00;6.65;;;3.00;89.30;;;;;;5079547;28;20025;-72
2020/12/17 05:27:15;;;;;;;9.75;7.57;;;3.00;89.10;;;;;;5079238;28;20055;-72
2020/12/17 05:29:43;;;;;;;10.50;7.45;;;2.90;89.80;;;;;;5061619;28;20043;-72
2020/12/17 05:32:10;;;;;;;9.02;7.07;;;2.90;89.20;;;;;;5079155;28;20032;-72
2020/12/17 05:34:37;;;;;;;9.95;6.10;;;2.80;90.00;;;;;;5079174;28;20039;-72
2020/12/17 05:37:06;;;;;;;8.63;6.10;;;2.70;90.30;;;;;;5079455;28;20060;-72
2020/12/17 05:39:33;;;;;;;8.25;6.38;;;2.70;90.70;;;;;;5079254;28;20347;-72
2020/12/17 05:41:59;;;;;;;9.52;6.35;;;2.70;90.50;;;;;;5061270;28;20063;-72
2020/12/17 05:44:25;;;;;;;9.43;6.68;;;2.70;90.80;;;;;;5079254;28;20424;-72
2020/12/17 05:46:51;;;;;;;7.47;5.53;;;2.70;90.80;;;;;;5079123;28;20039;-72
2020/12/17 05:49:18;;;;;;;5.95;3.80;;;2.60;91.10;;;;;;5078989;28;20021;-72
2020/12/17 05:51:44;;;;;;;3.17;2.50;;;2.60;91.40;;;;;;5061226;28;20374;-72
2020/12/17 05:54:20;;;;;;;3.30;2.70;;;2.60;91.60;;;;;;5079047;28;20033;-72
2020/12/17 05:56:47;;;;;;;2.00;1.70;;;2.70;91.40;;;;;;5079024;28;20078;-72
2020/12/17 05:59:20;;;;;;;3.05;2.22;;;2.70;91.40;;;;;;5078786;28;20028;-72
2020/12/17 06:01:48;;;;;;;4.30;3.60;;;2.70;91.20;;;;;;5061014;28;20028;-72
2020/12/17 06:04:15;;;;;;;5.05;2.97;;;2.70;91.10;;;;;;5078336;28;20082;-72
2020/12/17 06:06:46;;;;;;;5.10;4.20;;;2.60;91.30;;;;;;5078674;28;20021;-72
2020/12/17 06:09:20;;;;;;;4.18;3.30;;;2.60;90.90;;;;;;5078603;28;20027;-72
2020/12/17 06:11:49;;;;;;;6.32;3.47;;;2.60;91.10;;;;;;5078584;28;20413;-70
2020/12/17 06:14:19;;;;;;;5.85;3.75;;;2.60;90.80;;;;;;5078455;28;20025;-70
2020/12/17 06:16:51;;;;;;;5.72;4.80;;;2.60;90.40;;;;;;5078435;28;20032;-70
2020/12/17 06:19:21;;;;;;;5.65;4.55;;;2.60;90.80;;;;;;5078421;28;20101;-70
2020/12/17 06:21:47;;;;;;;5.57;4.28;;;2.50;91.20;;;;;;5078689;28;20025;-70
2020/12/17 06:24:16;;;;;;;5.72;5.00;;;2.50;91.20;;;;;;5078077;28;20170;-70
2020/12/17 06:26:52;;;;;;;8.82;6.63;;;2.60;91.10;;;;;;5078097;28;20048;-70
2020/12/17 06:29:19;;;;;;;;;;;2.60;91.00;;;;;;5078943;28;20024;-70
2020/12/17 06:31:56;;;;;;;6.85;4.57;;;2.60;90.90;;;;;;5078083;28;19904;-70
2020/12/17 06:34:26;;;;;;;7.28;5.00;;;2.60;91.20;;;;;;5078291;28;20032;-71
2020/12/17 06:36:57;;;;;;;6.10;5.50;;;2.60;91.80;;;;;;5077359;28;20027;-72
2020/12/17 06:39:24;;;;;;;5.30;4.15;;;2.70;92.10;;;;;;5077985;28;20017;-72
2020/12/17 06:41:52;;;;;;;8.95;6.30;;;2.70;91.40;;;;;;5077984;28;20016;-72
2020/12/17 06:44:35;;;;;;;6.07;4.30;;;2.80;91.40;;;;;;5077757;28;20421;-72
2020/12/17 06:47:02;;;;;;;6.65;4.03;;;2.90;90.90;;;;;;5078234;28;20027;-72
2020/12/17 06:49:30;;;;;;;8.82;3.90;;;3.00;90.70;;;;;;5060137;28;20024;-72
2020/12/17 06:52:09;;;;;;;9.93;7.70;;;2.90;90.10;;;;;;5077720;28;20040;-72
2020/12/17 06:54:40;;;;;;;10.90;8.70;;;2.90;89.90;;;;;;5078008;28;20078;-72
2020/12/17 06:57:07;;;;;;;10.88;8.75;;;2.80;90.40;;;;;;5077505;28;20044;-72
2020/12/17 06:59:33;;;;;;;13.40;9.15;;;2.80;90.30;;;;;;5059879;28;20036;-72
2020/12/17 07:02:02;;;;;;;10.70;8.43;;;2.80;90.60;;;;;;5077418;28;20028;-72
2020/12/17 07:04:36;;;;;;;14.50;8.32;;;2.80;90.90;;;;;;5077457;28;20020;-72
2020/12/17 07:07:13;;;;;;;9.93;7.03;;;2.90;90.70;;;;;;5077395;28;20028;-72
2020/12/17 07:09:40;;;;;;;6.85;4.95;;;2.90;90.20;;;;;;5077509;28;20095;-72
2020/12/17 07:12:06;;;;;;;6.65;4.35;;;2.90;90.40;;;;;;5077375;28;20024;-72
2020/12/17 07:14:34;;;;;;;5.22;4.05;;;2.90;90.70;;;;;;5059529;28;20024;-72
2020/12/17 07:17:03;;;;;;;7.50;3.63;;;2.90;91.50;;;;;;5077235;28;20484;-72
2020/12/17 07:19:38;;;;;;;5.80;3.78;;;3.00;91.70;;;;;;5077285;28;20405;-72
2020/12/17 07:22:13;;;;;;;5.38;4.07;;;3.00;91.60;;;;;;5077400;28;20029;-72
2020/12/17 07:24:49;;;;;;;6.43;4.82;;;3.10;91.80;;;;;;5077516;28;20043;-72
2020/12/17 07:27:33;;;;;;;6.93;4.43;;;3.20;91.70;;;;;;5077086;28;20363;-72
2020/12/17 07:30:01;;;;;;;7.22;5.65;;;3.40;90.80;;;;;;5077062;28;20166;-72
2020/12/17 07:32:37;;;;;;;6.55;4.72;;;3.50;90.50;;;;;;5077011;28;20031;-72
2020/12/17 07:35:06;;;;;;;3.08;2.55;;;3.60;90.20;;;;;;5077212;28;20328;-70
2020/12/17 07:37:41;;;;;;;4.25;3.10;;;3.80;89.80;;;;;;5076963;28;20485;-70
2020/12/17 07:40:34;;;;;;;4.18;2.90;;;3.90;89.50;;;;;;5076951;28;20056;-70
2020/12/17 07:43:14;;;;;;;3.97;3.58;;;4.10;88.80;;;;;;5076862;28;20028;-70
2020/12/17 07:45:49;;;;;;;3.90;3.40;;;4.30;88.00;;;;;;5076802;28;20020;-71
2020/12/17 07:48:33;;;;;;;5.53;3.67;;;4.40;87.80;;;;;;5076897;28;20024;-72
2020/12/17 07:51:13;;;;;;;6.95;4.22;;;4.50;87.10;;;;;;5076635;28;20455;-70
2020/12/17 07:53:40;;;;;;;5.55;3.85;;;4.60;87.30;;;;;;5076849;28;20085;-70
2020/12/17 07:56:09;;;;;;;8.10;4.95;;;4.60;87.30;;;;;;5058908;28;20324;-70
2020/12/17 07:58:35;;;;;;;5.93;4.95;;;4.70;87.60;;;;;;5076685;28;20432;-71
2020/12/17 08:01:02;;;;;;;5.82;5.20;;;4.70;87.80;;;;;;5076765;28;20108;-72
2020/12/17 08:03:48;;;;;;;7.25;5.75;;;4.70;88.20;;;;;;5076594;28;20021;-72
2020/12/17 08:06:24;;;;;;;9.17;6.20;;;4.70;88.20;;;;;;5058898;28;20032;-71
2020/12/17 08:08:58;;;;;;;;;;;4.80;88.40;;;;;;5076968;28;20025;-72
2020/12/17 08:11:25;;;;;;;11.27;8.57;;;4.90;87.90;;;;;;5076779;28;20041;-72
2020/12/17 08:14:07;;;;;;;8.65;6.95;;;5.00;88.10;;;;;;5076485;28;20320;-72
2020/12/17 08:16:34;;;;;;;8.25;6.63;;;5.10;86.70;;;;;;5076963;28;20348;-72
2020/12/17 08:19:02;;;;;;;6.95;5.65;;;5.20;85.80;;;;;;5076517;28;20028;-71
2020/12/17 08:21:29;;;;;;;7.45;5.85;;;5.30;85.00;;;;;;5076813;28;20111;-72
2020/12/17 08:23:55;;;;;;;7.88;6.10;;;5.30;84.80;;;;;;5076612;28;20121;-72
2020/12/17 08:26:28;;;;;;;8.40;6.43;;;5.30;84.30;;;;;;5076473;28;20115;-72
2020/12/17 08:28:55;;;;;;;6.50;5.50;;;5.30;84.20;;;;;;5076386;28;20017;-72
2020/12/17 08:31:27;;;;;;;8.57;6.50;;;5.30;84.00;;;;;;5077005;28;20056;-70
2020/12/17 08:33:57;;;;;;;7.97;6.35;;;5.30;84.50;;;;;;5076302;28;20071;-71
2020/12/17 08:36:24;;;;;;;8.52;5.75;;;5.30;84.40;;;;;;5076650;28;20117;-70
2020/12/17 08:38:57;;;;;;;7.20;6.25;;;5.30;84.30;;;;;;5076361;28;20017;-70
2020/12/17 08:41:41;;;;;;;8.45;6.60;;;5.40;84.60;;;;;;5076259;28;20413;-71
2020/12/17 08:44:10;;;;;;;6.70;5.90;;;5.50;84.10;;;;;;5076392;28;20051;-71
2020/12/17 08:46:47;;;;;;;7.68;5.88;;;5.60;84.60;;;;;;5076774;28;20095;-70
2020/12/17 08:49:16;;;;;;;6.57;5.70;;;5.70;83.30;;;;;;5076253;28;20090;-69
2020/12/17 08:51:47;;;;;;;5.90;4.97;;;5.70;83.10;;;;;;5076265;28;20470;-71
2020/12/17 08:54:33;;;;;;;6.40;5.28;;;5.80;82.60;;;;;;5076412;28;20412;-71
2020/12/17 08:57:08;;;;;;;7.90;5.75;;;6.00;82.70;;;;;;5076276;28;20063;-69
2020/12/17 08:59:37;;;;;;;6.72;5.25;;;6.00;82.00;;;;;;5076443;28;20450;-70
2020/12/17 09:02:03;;;;;;;7.03;5.70;;;6.10;81.90;;;;;;5079574;28;20043;-71
2020/12/17 09:04:29;;;;;;;10.93;6.82;;;6.20;81.50;;;;;;5079798;28;20347;-70
2020/12/17 09:06:59;;;;;;;10.02;7.35;;;6.20;81.10;;;;;;5080055;28;20308;-70
2020/12/17 09:09:28;;;;;;;7.60;6.53;;;6.20;81.60;;;;;;5079737;28;20021;-69
2020/12/17 09:11:57;;;;;;;7.90;6.97;;;6.20;83.00;;;;;;5079624;28;20021;-71
2020/12/17 09:14:28;;;;;;;7.55;5.97;;;6.30;83.60;;;;;;5061778;28;20035;-70
2020/12/17 09:16:54;;;;;;;8.10;5.57;;;6.40;82.80;;;;;;5079593;28;20040;-70
2020/12/17 09:19:20;;;;;;;7.38;5.60;;;6.60;81.50;;;;;;5079885;28;20028;-70
2020/12/17 09:21:56;;;;;;;7.95;6.05;;;6.70;80.80;;;;;;5079769;28;20028;-70
2020/12/17 09:24:29;;;;;;;6.95;5.82;;;6.80;80.80;;;;;;5079271;28;20072;-70
2020/12/17 09:26:57;;;;;;;6.75;5.60;;;6.90;80.80;;;;;;5079419;28;20432;-70
2020/12/17 09:29:23;;;;;;;6.90;5.50;;;7.10;79.20;;;;;;5079362;28;20119;-70
2020/12/17 09:31:49;;;;;;;7.30;6.50;;;7.20;78.10;;;;;;5079743;28;20035;-70
2020/12/17 09:34:17;;;;;;;6.93;5.40;;;7.40;78.90;;;;;;5061466;28;20380;-70
2020/12/17 09:36:56;;;;;;;5.63;4.90;;;7.90;76.70;;;;;;5079470;28;20035;-70
2020/12/17 09:39:22;;;;;;;6.53;5.63;;;8.90;73.20;;;;;;5079259;28;20491;-70
2020/12/17 09:41:55;;;;;;;6.22;4.90;;;9.90;71.20;;;;;;5078894;28;20024;-70
2020/12/17 09:44:28;;;;;;;5.30;4.80;;;10.90;67.40;;;;;;5079365;28;20029;-70
2020/12/17 09:46:54;;;;;;;5.80;4.60;;;11.60;66.30;;;;;;5079404;28;20352;-70
2020/12/17 09:49:28;;;;;;;5.50;4.45;;;12.20;64.80;;;;;;5079039;28;20016;-70
2020/12/17 09:52:13;;;;;;;5.65;5.03;;;12.90;61.20;;;;;;5079508;28;20396;-71
2020/12/17 09:54:41;;;;;;;4.93;4.15;;;13.30;60.60;;;;;;5079267;28;20409;-71
2020/12/17 09:57:14;;;;;;;5.43;4.78;;;13.30;58.80;;;;;;5078826;28;20032;-71
2020/12/17 09:59:42;;;;;;;10.25;4.60;;;13.20;59.10;;;;;;5078990;28;20082;-71
2020/12/17 10:02:13;;;;;;;7.63;4.72;;;13.50;60.70;;;;;;5078912;28;20029;-71
2020/12/17 10:04:41;;;;;;;6.05;4.75;;;13.60;58.30;;;;;;5079038;28;20435;-71
2020/12/17 10:07:08;;;;;;;7.57;6.07;;;13.60;58.50;;;;;;5059432;28;20455;-71
2020/12/17 10:09:38;;;;;;;8.57;5.72;;;13.50;58.30;;;;;;5078518;28;20047;-73
2020/12/17 10:12:03;;;;;;;7.00;6.30;;;13.20;58.70;;;;;;5077452;28;20020;-71
2020/12/17 10:14:29;;;;;;;6.45;5.85;;;13.20;59.00;;;;;;5078756;28;20074;-71
2020/12/17 10:17:00;;;;;;;7.10;6.35;;;13.30;59.30;;;;;;5060662;28;20060;-71
2020/12/17 10:19:30;;;;;;;6.10;5.50;;;13.50;58.40;;;;;;5078794;28;20103;-71
2020/12/17 10:22:00;;;;;;;7.13;6.25;;;13.60;57.90;;;;;;5060912;28;20086;-71
2020/12/17 10:24:26;;;;;;;9.02;7.28;;;13.90;57.40;;;;;;5078585;28;20036;-71
2020/12/17 10:26:52;;;;;;;8.15;6.47;;;14.20;57.10;;;;;;5078038;28;20140;-71
2020/12/17 10:29:21;;;;;;;9.00;8.10;;;14.30;57.70;;;;;;5078481;28;20474;-71
2020/12/17 10:31:47;;;;;;;10.70;7.32;;;14.20;58.10;;;;;;5078402;28;20033;-71
2020/12/17 10:34:17;;;;;;;10.05;7.32;;;14.10;58.20;;;;;;5078086;28;20353;-71
2020/12/17 10:36:47;;;;;;;9.15;7.78;;;14.00;57.50;;;;;;5078345;28;20097;-71
2020/12/17 10:39:13;;;;;;;9.15;7.68;;;14.30;57.90;;;;;;5077776;28;20092;-72
2020/12/17 10:41:39;;;;;;;8.68;7.78;;;14.50;56.10;;;;;;5077973;28;20054;-72
2020/12/17 10:44:06;;;;;;;12.13;6.90;;;14.50;56.70;;;;;;5078002;28;20021;-72
2020/12/17 10:46:32;;;;;;;8.32;6.40;;;14.50;56.60;;;;;;5077892;28;20446;-71
2020/12/17 10:49:01;;;;;;;7.40;6.32;;;14.50;57.40;;;;;;5078107;28;20362;-72
2020/12/17 10:51:27;;;;;;;9.10;7.70;;;14.50;56.30;;;;;;5077725;28;20021;-72
2020/12/17 10:53:52;;;;;;;8.88;6.45;;;14.40;56.50;;;;;;5077703;28;20032;-72
2020/12/17 10:56:18;;;;;;;7.72;6.53;;;14.30;57.60;;;;;;5077707;28;20424;-72
2020/12/17 10:58:44;;;;;;;7.07;6.30;;;14.30;58.30;;;;;;5077844;28;20024;-72
2020/12/17 11:01:13;;;;;;;6.90;6.15;;;14.20;56.60;;;;;;5077320;28;20024;-71
2020/12/17 11:03:38;;;;;;;6.97;5.72;;;14.10;57.80;;;;;;5077494;28;20081;-72
2020/12/17 11:06:04;;;;;;;7.85;5.35;;;14.10;57.50;;;;;;5077686;28;20099;-72
2020/12/17 11:08:33;;;;;;;5.82;5.22;;;14.10;57.70;;;;;;5077901;28;20484;-72
2020/12/17 11:10:59;;;;;;;10.10;6.25;;;14.20;57.60;;;;;;5077728;28;20044;-71
2020/12/17 11:13:27;;;;;;;7.85;5.55;;;14.40;56.80;;;;;;5077370;28;20367;-72
2020/12/17 11:15:53;;;;;;;7.63;6.50;;;14.40;55.80;;;;;;5077280;28;20040;-72
2020/12/17 11:18:22;;;;;;;7.38;6.57;;;14.30;56.50;;;;;;5077193;28;20021;-72
2020/12/17 11:20:50;;;;;;;7.53;6.20;;;14.20;57.70;;;;;;5077959;28;20025;-72
2020/12/17 11:23:16;;;;;;;6.25;4.93;;;14.20;57.40;;;;;;5076880;28;20029;-72
2020/12/17 11:25:42;;;;;;;8.07;5.93;;;14.20;58.00;;;;;;5077205;28;20044;-72
2020/12/17 11:28:08;;;;;;;8.88;6.55;;;14.40;56.60;;;;;;5076733;28;20036;-71
2020/12/17 11:30:38;;;;;;;10.60;7.82;;;14.50;58.10;;;;;;5077200;28;20043;-72
2020/12/17 11:33:06;;;;;;;8.00;7.15;;;14.70;56.50;;;;;;5077136;28;20094;-71
2020/12/17 11:35:37;;;;;;;7.70;6.90;;;14.40;56.70;;;;;;5076971;28;20028;-71
2020/12/17 11:38:03;;;;;;;7.60;6.30;;;14.40;58.10;;;;;;5076959;28;20097;-72
2020/12/17 11:40:29;;;;;;;9.52;6.07;;;14.40;56.90;;;;;;5077267;28;20105;-72
2020/12/17 11:42:57;;;;;;;8.30;6.95;;;14.40;57.30;;;;;;5076819;28;20082;-72
2020/12/17 11:45:24;;;;;;;6.85;6.15;;;14.30;57.80;;;;;;5076830;28;20099;-72
2020/12/17 11:47:51;;;;;;;7.22;6.53;;;14.40;57.90;;;;;;5076882;28;20092;-72
2020/12/17 11:50:17;;;;;;;6.90;6.10;;;14.50;56.80;;;;;;5077090;28;20108;-71
2020/12/17 11:52:43;;;;;;;6.78;5.90;;;14.30;57.40;;;;;;5076949;28;20411;-72
2020/12/17 11:55:09;;;;;;;8.63;6.25;;;14.30;57.70;;;;;;5059135;28;20056;-72
2020/12/17 11:57:35;;;;;;;7.82;6.18;;;14.30;56.60;;;;;;5076714;28;20436;-72
2020/12/17 12:00:05;;;;;;;6.32;5.70;;;14.30;58.10;;;;;;5076734;28;20029;-72
2020/12/17 12:02:35;;;;;;;10.60;6.65;;;14.30;57.00;;;;;;5076895;28;20029;-72
2020/12/17 12:05:00;;;;;;;7.43;6.50;;;14.40;58.60;;;;;;5076785;28;20145;-72
2020/12/17 12:07:26;;;;;;;7.93;5.80;;;14.40;56.30;;;;;;5076888;28;20059;-72
2020/12/17 12:09:53;;;;;;;7.60;6.43;;;14.50;58.00;;;;;;5076651;28;20093;-72
2020/12/17 12:12:19;;;;;;;8.48;6.30;;;14.40;58.30;;;;;;5076567;28;20047;-72
2020/12/17 12:14:45;;;;;;;7.55;5.80;;;14.20;57.50;;;;;;5076498;28;20413;-71
2020/12/17 12:17:10;;;;;;;8.60;6.28;;;14.10;58.30;;;;;;5058752;28;20016;-72
2020/12/17 12:19:36;;;;;;;6.03;5.43;;;14.00;59.00;;;;;;5076885;28;20027;-72
2020/12/17 12:22:02;;;;;;;7.20;5.20;;;13.80;59.20;;;;;;5076470;28;20035;-72
2020/12/17 12:24:28;;;;;;;6.80;5.38;;;13.50;58.80;;;;;;5076313;28;20033;-71
2020/12/17 12:26:54;;;;;;;6.53;5.47;;;13.40;59.70;;;;;;5076124;28;20405;-72
2020/12/17 12:29:19;;;;;;;6.68;5.03;;;13.30;59.90;;;;;;5076441;28;20048;-71
2020/12/17 12:31:49;;;;;;;6.22;5.38;;;13.30;59.20;;;;;;5076374;28;20025;-71
2020/12/17 12:34:15;;;;;;;5.15;4.25;;;13.00;60.90;;;;;;5076316;28;20024;-71
2020/12/17 12:36:50;;;;;;;4.90;4.40;;;12.90;61.20;;;;;;5079645;28;20029;-71
2020/12/17 12:39:16;;;;;;;5.07;4.28;;;12.80;60.20;;;;;;5080336;28;20063;-71
2020/12/17 12:41:44;;;;;;;5.63;4.43;;;12.80;61.40;;;;;;5080398;28;20021;-72
2020/12/17 12:44:09;;;;;;;4.25;3.63;;;12.70;60.80;;;;;;5080113;28;20078;-71
2020/12/17 12:46:35;;;;;;;7.50;5.10;;;12.60;62.50;;;;;;5080479;28;20355;-71
2020/12/17 12:49:01;;;;;;;6.05;5.00;;;12.60;60.70;;;;;;5080195;28;20031;-71
2020/12/17 12:51:26;;;;;;;8.45;6.20;;;12.40;62.70;;;;;;5080155;28;20059;-71
2020/12/17 12:53:52;;;;;;;6.28;5.68;;;12.10;61.90;;;;;;5062283;28;20098;-71
2020/12/17 12:56:25;;;;;;;6.47;5.28;;;11.90;63.50;;;;;;5080023;28;20420;-71
2020/12/17 12:58:51;;;;;;;6.82;5.28;;;11.60;63.10;;;;;;5079958;28;20432;-71
2020/12/17 13:01:19;;;;;;;5.32;4.60;;;11.30;63.60;;;;;;5080249;28;20051;-71